This is the latest recevied weather packets stored in our database for station/object WP3XM. If no packets are shown the sender has not sent any weather packets the latest 10 day(s).
| Time | Temp. | Humidity | Pressure | Rain* | Wind** | Luminosity | Snow |
|---|---|---|---|---|---|---|---|
| 1777516074 | 25.56° C | 87% | 1015.7 hPa | 0 mm | - | 0 W/m² | - |
| 1777515771 | 25.56° C | 87% | 1015.7 hPa | 0 mm | - | 0 W/m² | - |
| 1777515468 | 25.56° C | 87% | 1015.7 hPa | 0 mm | - | 0 W/m² | - |
| 1777515165 | 25.56° C | 87% | 1015.8 hPa | 0 mm | - | 0 W/m² | - |
| 1777514861 | 25.56° C | 87% | 1015.6 hPa | 0 mm | - | 0 W/m² | - |
| 1777514558 | 26.11° C | 86% | 1015.6 hPa | 0 mm | - | 0 W/m² | - |
| 1777514256 | 26.11° C | 85% | 1015.6 hPa | 0 mm | - | 0 W/m² | - |
| 1777513951 | 26.11° C | 86% | 1015.7 hPa | 0 mm | - | 0 W/m² | - |
| 1777513649 | 26.11° C | 86% | 1015.6 hPa | 0 mm | - | 0 W/m² | - |
| 1777513346 | 26.11° C | 86% | 1015.6 hPa | 0 mm | - | 0 W/m² | - |
| 1777513042 | 26.11° C | 87% | 1015.8 hPa | 0 mm | - | 0 W/m² | - |
| 1777512738 | 25.56° C | 89% | 1015.9 hPa | 0 mm | - | 0 W/m² | - |
| 1777512435 | 25.56° C | 87% | 1015.9 hPa | 0 mm | - | 0 W/m² | - |
| 1777512132 | 25.56° C | 87% | 1015.7 hPa | 0 mm | - | 0 W/m² | - |
| 1777511830 | 25.56° C | 86% | 1015.8 hPa | 0 mm | - | 0 W/m² | - |
| 1777511527 | 25.56° C | 85% | 1015.7 hPa | 0 mm | - | 0 W/m² | - |
| 1777511223 | 26.67° C | 82% | 1015.7 hPa | 0 mm | - | 0 W/m² | - |
| 1777510919 | 27.22° C | 80% | 1015.7 hPa | 0 mm | - | 0 W/m² | - |
| 1777510616 | 26.67° C | 80% | 1015.5 hPa | 0 mm | - | 0 W/m² | - |
| 1777510313 | 26.67° C | 81% | 1015.5 hPa | 0 mm | - | 0 W/m² | - |
| 1777510009 | 26.11° C | 82% | 1015.3 hPa | 0 mm | - | 0 W/m² | - |
| 1777509705 | 26.11° C | 82% | 1015.2 hPa | 0 mm | - | 0 W/m² | - |
| 1777509401 | 26.11° C | 81% | 1015.2 hPa | 0 mm | - | 0 W/m² | - |
| 1777509099 | 26.11° C | 81% | 1015.2 hPa | 0 mm | - | 0 W/m² | - |
| 1777508796 | 26.11° C | 81% | 1015.5 hPa | 0 mm | - | 0 W/m² | - |
* Rain latest hour (hover to see other rain measurements)
** Current wind speed in m/s (hover to see current wind gust speed)